Time;durP1;ratioP1;P1;durP2;ratioP2;P2;SDS_P1;SDS_P2;PMS_P1;PMS_P2;Temp;Humidity;BMP_temperature;BMP_pressure;BME280_temperature;BME280_humidity;BME280_pressure;Samples;Min_cycle;Max_cycle;Signal;HPM_P1;HPM_P2
2024/01/07 00:00:03;;;;;;;5.38;4.10;;;;;;;;;;5020380;28;20213;-70
2024/01/07 00:02:31;;;;;;;4.70;4.18;;;;;;;;;;5020450;28;20206;-70
2024/01/07 00:04:58;;;;;;;4.75;4.18;;;;;;;;;;5020120;28;20210;-70
2024/01/07 00:07:26;;;;;;;4.30;3.88;;;;;;;;;;5020036;28;20210;-70
2024/01/07 00:09:55;;;;;;;5.35;4.57;;;;;;;;;;5020469;28;20206;-70
2024/01/07 00:12:24;;;;;;;4.78;4.28;;;;;;;;;;5020088;28;20213;-70
2024/01/07 00:14:52;;;;;;;5.63;4.50;;;;;;;;;;5019934;28;20209;-70
2024/01/07 00:17:19;;;;;;;5.05;4.55;;;;;;;;;;5019850;28;20230;-70
2024/01/07 00:19:47;;;;;;;5.15;4.60;;;;;;;;;;5019581;28;20625;-70
2024/01/07 00:22:14;;;;;;;4.95;4.45;;;;;;;;;;5020287;28;20312;-70
2024/01/07 00:24:41;;;;;;;4.95;4.30;;;;;;;;;;5020278;28;20232;-70
2024/01/07 00:27:10;;;;;;;5.28;4.45;;;;;;;;;;5020130;28;20470;-70
2024/01/07 00:29:38;;;;;;;5.65;4.88;;;;;;;;;;5019488;28;20233;-70
2024/01/07 00:32:05;;;;;;;5.30;4.80;;;;;;;;;;5020292;28;20543;-70
2024/01/07 00:34:33;;;;;;;5.35;4.65;;;;;;;;;;5019620;28;20210;-70
2024/01/07 00:37:00;;;;;;;5.82;4.95;;;;;;;;;;5019139;28;20233;-70
2024/01/07 00:39:28;;;;;;;5.43;4.45;;;;;;;;;;5019643;28;20241;-70
2024/01/07 00:41:55;;;;;;;5.72;5.00;;;;;;;;;;5019865;28;20211;-70
2024/01/07 00:44:24;;;;;;;5.53;4.90;;;;;;;;;;5019246;28;20206;-70
2024/01/07 00:46:51;;;;;;;6.13;4.80;;;;;;;;;;5019385;28;20225;-70
2024/01/07 00:49:18;;;;;;;4.43;4.03;;;;;;;;;;5019625;28;20662;-70
2024/01/07 00:51:46;;;;;;;5.43;4.55;;;;;;;;;;5018823;28;20206;-70
2024/01/07 00:54:13;;;;;;;6.13;4.95;;;;;;;;;;5010782;28;20212;-70
2024/01/07 00:56:41;;;;;;;5.72;4.70;;;;;;;;;;5012808;28;20226;-70
2024/01/07 00:59:08;;;;;;;5.63;4.53;;;;;;;;;;5014413;28;20652;-70
2024/01/07 01:01:37;;;;;;;5.32;4.70;;;;;;;;;;5015814;28;20214;-70
2024/01/07 01:04:05;;;;;;;5.63;4.63;;;;;;;;;;5018677;28;20268;-70
2024/01/07 01:06:32;;;;;;;6.28;5.07;;;;;;;;;;5019014;28;20601;-70
2024/01/07 01:09:00;;;;;;;5.97;5.20;;;;;;;;;;5019252;28;20206;-70
2024/01/07 01:11:27;;;;;;;5.30;4.63;;;;;;;;;;5019257;28;20307;-69
2024/01/07 01:13:55;;;;;;;4.97;4.47;;;;;;;;;;5019472;28;20212;-70
2024/01/07 01:16:23;;;;;;;4.93;4.43;;;;;;;;;;5019333;28;20493;-70
2024/01/07 01:18:53;;;;;;;5.72;4.80;;;;;;;;;;5010837;28;20203;-70
2024/01/07 01:21:20;;;;;;;4.80;4.30;;;;;;;;;;5018813;28;20361;-70
2024/01/07 01:23:48;;;;;;;5.28;4.78;;;;;;;;;;5018900;28;20288;-70
2024/01/07 01:26:15;;;;;;;5.53;4.65;;;;;;;;;;5019027;28;20499;-70
2024/01/07 01:28:43;;;;;;;5.10;4.60;;;;;;;;;;5018158;28;20234;-70
2024/01/07 01:31:14;;;;;;;5.30;4.80;;;;;;;;;;5018626;28;20306;-70
2024/01/07 01:33:42;;;;;;;5.20;4.70;;;;;;;;;;5019133;28;20206;-70
2024/01/07 01:36:11;;;;;;;5.65;4.95;;;;;;;;;;5018367;28;20234;-70
2024/01/07 01:38:39;;;;;;;5.05;4.55;;;;;;;;;;5018550;28;20206;-70
2024/01/07 01:41:06;;;;;;;5.60;5.05;;;;;;;;;;5018551;28;20287;-69
2024/01/07 01:43:34;;;;;;;5.32;4.68;;;;;;;;;;5018772;28;20520;-70
2024/01/07 01:46:02;;;;;;;5.30;4.63;;;;;;;;;;5018345;28;20471;-70
2024/01/07 01:48:29;;;;;;;5.18;4.68;;;;;;;;;;5018698;28;20217;-70
2024/01/07 01:50:57;;;;;;;6.10;4.90;;;;;;;;;;5018584;28;20248;-70
2024/01/07 01:53:27;;;;;;;5.95;4.80;;;;;;;;;;5018284;28;20206;-70
2024/01/07 01:55:57;;;;;;;5.68;4.93;;;;;;;;;;5000504;28;20283;-70
2024/01/07 01:58:25;;;;;;;5.70;5.05;;;;;;;;;;4998857;28;20235;-70
2024/01/07 02:00:52;;;;;;;5.30;4.80;;;;;;;;;;4998366;28;20290;-70
2024/01/07 02:03:20;;;;;;;4.95;4.45;;;;;;;;;;4997813;28;20305;-70
2024/01/07 02:05:47;;;;;;;5.32;4.80;;;;;;;;;;4998320;28;20213;-70
2024/01/07 02:08:15;;;;;;;5.55;5.05;;;;;;;;;;4998454;28;20207;-69
2024/01/07 02:10:44;;;;;;;5.15;4.65;;;;;;;;;;4998698;28;20207;-69
2024/01/07 02:13:12;;;;;;;5.82;4.82;;;;;;;;;;4998226;28;20214;-69
2024/01/07 02:15:39;;;;;;;5.65;4.68;;;;;;;;;;4997947;28;20266;-69
2024/01/07 02:18:07;;;;;;;5.10;4.60;;;;;;;;;;4998090;28;20266;-70
2024/01/07 02:20:35;;;;;;;6.13;4.80;;;;;;;;;;4998106;28;20334;-70
2024/01/07 02:23:03;;;;;;;5.18;4.68;;;;;;;;;;4998033;28;20589;-70
2024/01/07 02:25:36;;;;;;;5.72;4.82;;;;;;;;;;4998080;28;20246;-70
2024/01/07 02:28:03;;;;;;;5.65;4.97;;;;;;;;;;4997480;28;20292;-70
2024/01/07 02:30:31;;;;;;;4.97;4.40;;;;;;;;;;4997759;28;20207;-69
2024/01/07 02:33:02;;;;;;;5.30;4.80;;;;;;;;;;4997951;28;20249;-70
2024/01/07 02:35:29;;;;;;;5.72;4.70;;;;;;;;;;4997407;28;20605;-69
2024/01/07 02:37:57;;;;;;;5.22;4.72;;;;;;;;;;4997719;28;20305;-69
2024/01/07 02:40:25;;;;;;;5.35;4.78;;;;;;;;;;4998024;28;20508;-70
2024/01/07 02:42:53;;;;;;;5.07;4.57;;;;;;;;;;4998049;28;20203;-70
2024/01/07 02:45:21;;;;;;;5.20;4.47;;;;;;;;;;4998145;28;20258;-70
2024/01/07 02:47:48;;;;;;;5.75;4.63;;;;;;;;;;5002919;28;20234;-70
2024/01/07 02:50:16;;;;;;;5.13;4.63;;;;;;;;;;5012999;28;20252;-70
2024/01/07 02:52:44;;;;;;;5.00;4.50;;;;;;;;;;5012668;28;20589;-70
2024/01/07 02:55:12;;;;;;;5.63;4.93;;;;;;;;;;5004875;28;20218;-70
2024/01/07 02:57:39;;;;;;;4.85;4.35;;;;;;;;;;5016887;28;20316;-69
2024/01/07 03:00:09;;;;;;;4.90;4.40;;;;;;;;;;5017553;28;20206;-70
2024/01/07 03:02:36;;;;;;;5.25;4.75;;;;;;;;;;5017095;28;20214;-70
2024/01/07 03:05:04;;;;;;;5.30;4.50;;;;;;;;;;5016966;28;20207;-70
2024/01/07 03:07:31;;;;;;;5.60;4.90;;;;;;;;;;5016161;28;20213;-70
2024/01/07 03:09:59;;;;;;;5.38;4.88;;;;;;;;;;5016671;28;20620;-70
2024/01/07 03:12:26;;;;;;;5.68;4.80;;;;;;;;;;5016542;28;20210;-70
2024/01/07 03:14:54;;;;;;;5.65;4.75;;;;;;;;;;5017867;28;20207;-70
2024/01/07 03:17:23;;;;;;;5.43;4.80;;;;;;;;;;5020412;28;20621;-70
2024/01/07 03:19:51;;;;;;;5.20;4.70;;;;;;;;;;5020639;28;20210;-69
2024/01/07 03:22:19;;;;;;;4.88;4.38;;;;;;;;;;5020708;28;20233;-69
2024/01/07 03:24:47;;;;;;;5.63;5.03;;;;;;;;;;5020269;28;20207;-69
2024/01/07 03:27:14;;;;;;;5.25;4.75;;;;;;;;;;5020445;28;20242;-69
2024/01/07 03:29:42;;;;;;;5.90;5.22;;;;;;;;;;5020705;28;20289;-69
2024/01/07 03:32:09;;;;;;;5.38;4.88;;;;;;;;;;5018492;28;20218;-69
2024/01/07 03:34:40;;;;;;;4.97;4.45;;;;;;;;;;5020445;28;20308;-70
2024/01/07 03:37:07;;;;;;;5.38;4.63;;;;;;;;;;5028794;28;20233;-70
2024/01/07 03:39:35;;;;;;;5.30;4.80;;;;;;;;;;5040312;28;20678;-69
2024/01/07 03:42:02;;;;;;;5.30;4.35;;;;;;;;;;5040573;28;20273;-69
2024/01/07 03:44:30;;;;;;;5.50;5.00;;;;;;;;;;5040651;28;20300;-70
2024/01/07 03:46:58;;;;;;;5.03;4.53;;;;;;;;;;5040001;28;20202;-70
2024/01/07 03:49:25;;;;;;;5.60;5.10;;;;;;;;;;5030852;28;20210;-70
2024/01/07 03:51:54;;;;;;;5.75;5.25;;;;;;;;;;5020722;28;20609;-70
2024/01/07 03:54:21;;;;;;;5.53;4.90;;;;;;;;;;5020370;28;20229;-69
2024/01/07 03:56:49;;;;;;;5.50;5.00;;;;;;;;;;5019988;28;20317;-70
2024/01/07 03:59:16;;;;;;;5.50;5.00;;;;;;;;;;5019544;28;20228;-70
2024/01/07 04:01:44;;;;;;;5.93;4.88;;;;;;;;;;5021341;28;20206;-70
2024/01/07 04:04:11;;;;;;;5.60;5.03;;;;;;;;;;5019375;28;20214;-70
2024/01/07 04:06:39;;;;;;;5.15;4.60;;;;;;;;;;5037359;28;20259;-70
2024/01/07 04:09:08;;;;;;;5.63;4.60;;;;;;;;;;5040109;28;20284;-69
2024/01/07 04:11:40;;;;;;;5.28;4.78;;;;;;;;;;5039567;28;20273;-69
2024/01/07 04:14:08;;;;;;;5.35;4.85;;;;;;;;;;5039694;28;20611;-69
2024/01/07 04:16:35;;;;;;;5.55;5.05;;;;;;;;;;5039611;28;20568;-70
2024/01/07 04:19:03;;;;;;;6.22;5.18;;;;;;;;;;5039922;28;20205;-70
2024/01/07 04:21:30;;;;;;;6.07;5.47;;;;;;;;;;5039132;28;20713;-70
2024/01/07 04:23:58;;;;;;;5.80;5.20;;;;;;;;;;5038720;28;20206;-70
2024/01/07 04:26:26;;;;;;;5.45;4.95;;;;;;;;;;5039033;28;20216;-70
2024/01/07 04:28:54;;;;;;;5.90;5.30;;;;;;;;;;5039760;28;20206;-70
2024/01/07 04:31:22;;;;;;;5.90;5.30;;;;;;;;;;5038880;28;20217;-70
2024/01/07 04:33:49;;;;;;;5.85;5.25;;;;;;;;;;5039389;28;20287;-69
2024/01/07 04:36:17;;;;;;;5.72;5.03;;;;;;;;;;5039600;28;20293;-70
2024/01/07 04:38:44;;;;;;;5.43;4.93;;;;;;;;;;5038716;28;20244;-70
2024/01/07 04:41:12;;;;;;;5.90;5.25;;;;;;;;;;5039076;28;20657;-70
2024/01/07 04:43:41;;;;;;;5.78;5.18;;;;;;;;;;5022942;28;20216;-70
2024/01/07 04:46:10;;;;;;;5.88;5.28;;;;;;;;;;4999420;28;20211;-70
2024/01/07 04:48:37;;;;;;;5.88;5.38;;;;;;;;;;5016198;28;20312;-69
2024/01/07 04:51:05;;;;;;;5.03;4.53;;;;;;;;;;5039709;28;20288;-69
2024/01/07 04:53:33;;;;;;;5.57;5.00;;;;;;;;;;5039336;28;20216;-69
2024/01/07 04:56:00;;;;;;;5.93;5.32;;;;;;;;;;5038774;28;20249;-70
2024/01/07 04:58:28;;;;;;;5.63;5.13;;;;;;;;;;5039199;28;20225;-69
2024/01/07 05:00:56;;;;;;;5.60;4.97;;;;;;;;;;5029740;28;20293;-69
2024/01/07 05:03:24;;;;;;;6.20;5.60;;;;;;;;;;5019593;28;20217;-69
2024/01/07 05:05:51;;;;;;;5.65;5.15;;;;;;;;;;5019336;28;20207;-69
2024/01/07 05:08:18;;;;;;;5.43;4.93;;;;;;;;;;5019084;28;20211;-70
2024/01/07 05:10:46;;;;;;;5.47;4.97;;;;;;;;;;5019066;28;20221;-70
2024/01/07 05:13:13;;;;;;;6.60;5.93;;;;;;;;;;5018831;28;20207;-69
2024/01/07 05:15:40;;;;;;;6.20;5.60;;;;;;;;;;5019178;28;20237;-69
2024/01/07 05:18:10;;;;;;;5.97;5.38;;;;;;;;;;5018424;28;20233;-69
2024/01/07 05:20:38;;;;;;;5.53;5.03;;;;;;;;;;5018178;28;20333;-70
2024/01/07 05:23:05;;;;;;;5.25;4.75;;;;;;;;;;5018775;28;20798;-69
2024/01/07 05:25:32;;;;;;;5.68;5.07;;;;;;;;;;5018503;28;20226;-69
2024/01/07 05:28:00;;;;;;;5.78;5.20;;;;;;;;;;5018016;28;20205;-70
2024/01/07 05:30:27;;;;;;;5.47;4.97;;;;;;;;;;5018854;28;20214;-69
2024/01/07 05:32:54;;;;;;;6.25;5.65;;;;;;;;;;5018421;28;20206;-69
2024/01/07 05:35:23;;;;;;;5.78;5.22;;;;;;;;;;5018333;28;20207;-69
2024/01/07 05:37:50;;;;;;;5.78;5.22;;;;;;;;;;5030059;28;20233;-70
2024/01/07 05:40:18;;;;;;;5.47;4.97;;;;;;;;;;5038107;28;20583;-70
2024/01/07 05:42:45;;;;;;;5.20;4.70;;;;;;;;;;5037810;28;20304;-69
2024/01/07 05:45:12;;;;;;;5.13;4.63;;;;;;;;;;5038056;28;20206;-70
2024/01/07 05:47:40;;;;;;;5.78;5.13;;;;;;;;;;5038028;28;20209;-70
2024/01/07 05:50:08;;;;;;;5.68;5.18;;;;;;;;;;5037628;28;20719;-69
2024/01/07 05:52:37;;;;;;;5.78;5.28;;;;;;;;;;5036760;28;20213;-69
2024/01/07 05:55:04;;;;;;;5.82;5.22;;;;;;;;;;5038145;28;20207;-69
2024/01/07 05:57:31;;;;;;;5.85;5.28;;;;;;;;;;5037682;28;20225;-69
2024/01/07 05:59:59;;;;;;;5.18;4.68;;;;;;;;;;5037715;28;20205;-70
2024/01/07 06:02:26;;;;;;;5.43;4.93;;;;;;;;;;5037733;28;20217;-70
2024/01/07 06:04:53;;;;;;;5.60;5.10;;;;;;;;;;5037610;28;20229;-69
2024/01/07 06:07:21;;;;;;;5.88;5.10;;;;;;;;;;5037998;28;20212;-69
2024/01/07 06:09:49;;;;;;;5.25;4.75;;;;;;;;;;5037311;28;20202;-70
2024/01/07 06:12:17;;;;;;;5.38;4.88;;;;;;;;;;5037991;28;20217;-70
2024/01/07 06:14:44;;;;;;;5.40;4.90;;;;;;;;;;5037415;28;20214;-69
2024/01/07 06:17:11;;;;;;;5.65;5.10;;;;;;;;;;5037571;28;20206;-69
2024/01/07 06:19:39;;;;;;;5.32;4.82;;;;;;;;;;5038030;28;20264;-69
2024/01/07 06:22:06;;;;;;;5.63;5.05;;;;;;;;;;5037316;28;20244;-69
2024/01/07 06:24:34;;;;;;;5.78;5.18;;;;;;;;;;5037492;28;20206;-69
2024/01/07 06:27:03;;;;;;;5.90;5.20;;;;;;;;;;5037524;28;20206;-69
2024/01/07 06:29:31;;;;;;;5.90;5.30;;;;;;;;;;5037216;28;20300;-70
2024/01/07 06:31:58;;;;;;;5.57;5.07;;;;;;;;;;5037212;28;20214;-70
2024/01/07 06:34:26;;;;;;;5.72;5.22;;;;;;;;;;5037020;28;20217;-70
2024/01/07 06:36:53;;;;;;;5.30;4.80;;;;;;;;;;5032120;28;20198;-70
2024/01/07 06:39:20;;;;;;;5.88;5.18;;;;;;;;;;5017222;28;20616;-70
2024/01/07 06:41:47;;;;;;;5.97;5.05;;;;;;;;;;5017644;28;20701;-69
2024/01/07 06:44:16;;;;;;;5.43;4.93;;;;;;;;;;5017149;28;20521;-69
2024/01/07 06:46:44;;;;;;;5.75;5.15;;;;;;;;;;5017530;28;20210;-69
2024/01/07 06:49:11;;;;;;;5.78;5.28;;;;;;;;;;5017271;28;20202;-69
2024/01/07 06:51:39;;;;;;;5.93;5.38;;;;;;;;;;5016849;28;20615;-70
2024/01/07 06:54:06;;;;;;;5.53;5.03;;;;;;;;;;5017363;28;20214;-70
2024/01/07 06:56:33;;;;;;;5.57;5.03;;;;;;;;;;5017528;28;20608;-70
2024/01/07 06:59:01;;;;;;;5.80;5.20;;;;;;;;;;5017086;28;20631;-70
2024/01/07 07:01:30;;;;;;;6.00;5.40;;;;;;;;;;5017113;28;20211;-70
2024/01/07 07:03:57;;;;;;;5.95;5.35;;;;;;;;;;5017896;28;20280;-70
2024/01/07 07:06:25;;;;;;;5.60;5.00;;;;;;;;;;5017404;28;20213;-70
2024/01/07 07:08:52;;;;;;;5.68;5.13;;;;;;;;;;5016986;28;20314;-70
2024/01/07 07:11:20;;;;;;;6.20;5.60;;;;;;;;;;5017159;28;20619;-70
2024/01/07 07:13:47;;;;;;;5.45;5.00;;;;;;;;;;5017192;28;20260;-70
2024/01/07 07:16:15;;;;;;;6.03;5.43;;;;;;;;;;5017404;28;20207;-70
2024/01/07 07:18:43;;;;;;;5.30;4.80;;;;;;;;;;5016751;28;20244;-70
2024/01/07 07:21:10;;;;;;;5.32;4.82;;;;;;;;;;5016952;28;20250;-70
2024/01/07 07:23:38;;;;;;;5.65;5.10;;;;;;;;;;5016774;28;20206;-69
2024/01/07 07:26:06;;;;;;;5.47;4.95;;;;;;;;;;5017097;28;20227;-69
2024/01/07 07:28:34;;;;;;;6.03;5.43;;;;;;;;;;5016864;28;20238;-69
2024/01/07 07:31:01;;;;;;;5.57;5.07;;;;;;;;;;5016864;28;20206;-69
2024/01/07 07:33:29;;;;;;;5.78;4.97;;;;;;;;;;5016845;28;20218;-69
2024/01/07 07:35:57;;;;;;;5.47;4.97;;;;;;;;;;5016892;28;20270;-69
2024/01/07 07:38:24;;;;;;;5.70;5.20;;;;;;;;;;5033687;28;20229;-69
2024/01/07 07:40:53;;;;;;;5.60;5.05;;;;;;;;;;5037092;28;20507;-70
2024/01/07 07:43:21;;;;;;;5.45;4.95;;;;;;;;;;5037076;28;20268;-69
2024/01/07 07:45:48;;;;;;;5.68;5.18;;;;;;;;;;5036443;28;20233;-69
2024/01/07 07:48:16;;;;;;;5.53;5.03;;;;;;;;;;5036539;28;20501;-69
2024/01/07 07:50:44;;;;;;;5.40;4.90;;;;;;;;;;5035942;28;20214;-69
2024/01/07 07:53:12;;;;;;;5.47;4.97;;;;;;;;;;5036400;28;20576;-70
2024/01/07 07:55:40;;;;;;;5.32;4.63;;;;;;;;;;5036600;28;20217;-70
2024/01/07 07:58:08;;;;;;;5.45;4.90;;;;;;;;;;5035641;28;20612;-69
2024/01/07 08:00:35;;;;;;;5.65;5.15;;;;;;;;;;5036532;28;20233;-69
2024/01/07 08:03:02;;;;;;;5.50;4.72;;;;;;;;;;5039930;28;20206;-69
2024/01/07 08:05:30;;;;;;;5.50;5.00;;;;;;;;;;5039418;28;20206;-70
2024/01/07 08:07:57;;;;;;;5.32;4.80;;;;;;;;;;5039445;28;20209;-70
2024/01/07 08:10:28;;;;;;;5.72;5.15;;;;;;;;;;5038833;28;20205;-70
2024/01/07 08:12:55;;;;;;;5.75;5.15;;;;;;;;;;5039257;28;20205;-70
2024/01/07 08:15:22;;;;;;;5.70;5.10;;;;;;;;;;5039672;28;20210;-69
2024/01/07 08:17:51;;;;;;;5.25;4.75;;;;;;;;;;5039275;28;20205;-70
2024/01/07 08:20:19;;;;;;;4.95;4.45;;;;;;;;;;5039407;28;20213;-70
2024/01/07 08:22:46;;;;;;;5.35;4.85;;;;;;;;;;5039428;28;20213;-76
2024/01/07 08:25:14;;;;;;;5.32;4.70;;;;;;;;;;5039025;28;20213;-70
2024/01/07 08:27:43;;;;;;;4.97;4.47;;;;;;;;;;5039301;28;20216;-70
2024/01/07 08:30:13;;;;;;;5.03;4.45;;;;;;;;;;5039370;28;20313;-70
2024/01/07 08:32:40;;;;;;;5.80;5.20;;;;;;;;;;5039313;28;20288;-70
2024/01/07 08:35:08;;;;;;;5.75;5.25;;;;;;;;;;5039403;28;20210;-69
2024/01/07 08:37:36;;;;;;;5.05;4.55;;;;;;;;;;5026900;28;20245;-69
2024/01/07 08:40:04;;;;;;;5.30;4.80;;;;;;;;;;5018589;28;20487;-70
2024/01/07 08:42:31;;;;;;;4.95;4.45;;;;;;;;;;5017929;28;20214;-70
2024/01/07 08:45:00;;;;;;;5.60;4.97;;;;;;;;;;5017830;28;20206;-69
2024/01/07 08:47:28;;;;;;;5.22;4.70;;;;;;;;;;5018458;28;20307;-69
2024/01/07 08:49:55;;;;;;;5.30;4.80;;;;;;;;;;5018341;28;20345;-69
2024/01/07 08:52:22;;;;;;;5.28;4.78;;;;;;;;;;5019212;28;20242;-70
2024/01/07 08:54:49;;;;;;;5.25;4.75;;;;;;;;;;5018238;28;20491;-69
2024/01/07 08:57:16;;;;;;;5.35;4.85;;;;;;;;;;5018618;28;20487;-69
2024/01/07 08:59:44;;;;;;;5.40;4.90;;;;;;;;;;5018733;28;20273;-70
2024/01/07 09:02:13;;;;;;;5.20;4.70;;;;;;;;;;5018884;28;20214;-69
2024/01/07 09:04:40;;;;;;;4.40;4.00;;;;;;;;;;5019266;28;20241;-69
2024/01/07 09:07:08;;;;;;;5.20;4.70;;;;;;;;;;5018424;28;20214;-69
2024/01/07 09:09:35;;;;;;;5.30;4.80;;;;;;;;;;5018824;28;20201;-70
2024/01/07 09:12:03;;;;;;;5.28;4.78;;;;;;;;;;5018864;28;20212;-69
2024/01/07 09:14:31;;;;;;;5.10;4.60;;;;;;;;;;5018298;28;20257;-69
2024/01/07 09:16:59;;;;;;;4.78;4.28;;;;;;;;;;5018497;28;20206;-69
2024/01/07 09:19:28;;;;;;;4.80;4.40;;;;;;;;;;5018035;28;20241;-69
2024/01/07 09:21:55;;;;;;;4.68;4.28;;;;;;;;;;5017865;28;20288;-69
2024/01/07 09:24:22;;;;;;;5.32;4.82;;;;;;;;;;5018538;28;20214;-69
2024/01/07 09:26:51;;;;;;;4.82;4.40;;;;;;;;;;5018476;28;20218;-69
2024/01/07 09:29:18;;;;;;;4.97;4.55;;;;;;;;;;5018192;28;20211;-69
2024/01/07 09:31:46;;;;;;;4.93;4.43;;;;;;;;;;5018504;28;20206;-69
2024/01/07 09:34:13;;;;;;;4.90;4.38;;;;;;;;;;5018150;28;20412;-69
2024/01/07 09:36:43;;;;;;;5.18;4.68;;;;;;;;;;5017995;28;20579;-70
2024/01/07 09:39:10;;;;;;;4.97;4.47;;;;;;;;;;5018432;28;20230;-69
2024/01/07 09:41:38;;;;;;;4.68;4.25;;;;;;;;;;5017956;28;20217;-69
2024/01/07 09:44:06;;;;;;;4.45;4.03;;;;;;;;;;5017463;28;20217;-70
2024/01/07 09:46:34;;;;;;;5.40;4.15;;;;;;;;;;5016912;28;20214;-69
2024/01/07 09:49:01;;;;;;;4.57;4.18;;;;;;;;;;5017562;28;20217;-70
2024/01/07 09:51:30;;;;;;;4.78;4.38;;;;;;;;;;5018346;28;20214;-70
2024/01/07 09:54:02;;;;;;;4.72;4.22;;;;;;;;;;5018027;28;20502;-69
2024/01/07 09:56:34;;;;;;;4.78;4.38;;;;;;;;;;5017662;28;20497;-70
2024/01/07 09:59:02;;;;;;;4.78;4.38;;;;;;;;;;5017635;28;20616;-69
2024/01/07 10:01:29;;;;;;;4.55;4.15;;;;;;;;;;5017467;28;20293;-70
2024/01/07 10:03:57;;;;;;;4.78;4.25;;;;;;;;;;5017829;28;20214;-69
2024/01/07 10:06:24;;;;;;;4.85;4.38;;;;;;;;;;5017824;28;20245;-69
2024/01/07 10:08:52;;;;;;;4.45;3.90;;;;;;;;;;5017579;28;20514;-69
2024/01/07 10:11:23;;;;;;;4.78;4.28;;;;;;;;;;5017504;28;20214;-69
2024/01/07 10:13:51;;;;;;;4.28;3.88;;;;;;;;;;5017681;28;20252;-69
2024/01/07 10:16:18;;;;;;;4.65;4.25;;;;;;;;;;5017072;28;20518;-69
2024/01/07 10:18:46;;;;;;;4.57;4.10;;;;;;;;;;5016909;28;20624;-69
2024/01/07 10:21:13;;;;;;;4.50;3.90;;;;;;;;;;5017212;28;20246;-69
2024/01/07 10:23:41;;;;;;;4.15;3.75;;;;;;;;;;5016292;28;20213;-69
2024/01/07 10:26:08;;;;;;;4.30;3.88;;;;;;;;;;5017122;28;20273;-69
2024/01/07 10:28:40;;;;;;;4.38;3.97;;;;;;;;;;5016662;28;20210;-70
2024/01/07 10:31:07;;;;;;;4.18;3.78;;;;;;;;;;5016484;28;20222;-70
2024/01/07 10:33:35;;;;;;;4.50;4.07;;;;;;;;;;5017045;28;20607;-69
2024/01/07 10:36:04;;;;;;;4.90;4.50;;;;;;;;;;5017396;28;20206;-69
2024/01/07 10:38:33;;;;;;;4.55;4.10;;;;;;;;;;5016915;28;20296;-69
2024/01/07 10:41:01;;;;;;;4.57;3.50;;;;;;;;;;5016785;28;20206;-69
2024/01/07 10:43:31;;;;;;;4.32;3.90;;;;;;;;;;5017025;28;20217;-70
2024/01/07 10:46:03;;;;;;;5.53;4.10;;;;;;;;;;5016828;28;20206;-70
2024/01/07 10:48:32;;;;;;;4.22;3.83;;;;;;;;;;5017485;28;20530;-69
2024/01/07 10:51:01;;;;;;;4.60;3.72;;;;;;;;;;5016732;28;20305;-69
2024/01/07 10:53:30;;;;;;;4.03;3.63;;;;;;;;;;5016581;28;20198;-69
2024/01/07 10:56:01;;;;;;;4.32;3.78;;;;;;;;;;5016488;28;20229;-69
2024/01/07 10:58:30;;;;;;;5.90;4.20;;;;;;;;;;5016875;28;20213;-69
2024/01/07 11:00:59;;;;;;;4.95;3.90;;;;;;;;;;5017135;28;20207;-70
2024/01/07 11:03:32;;;;;;;5.20;3.95;;;;;;;;;;5017184;28;20305;-69
2024/01/07 11:06:03;;;;;;;4.22;3.83;;;;;;;;;;5016383;28;20218;-69
2024/01/07 11:08:34;;;;;;;5.53;3.80;;;;;;;;;;5016634;28;20585;-69
2024/01/07 11:11:05;;;;;;;4.40;4.00;;;;;;;;;;5016423;28;20206;-70
2024/01/07 11:13:37;;;;;;;4.90;3.65;;;;;;;;;;5016710;28;20214;-70
2024/01/07 11:16:05;;;;;;;4.80;4.13;;;;;;;;;;5016398;28;20210;-70
2024/01/07 11:18:35;;;;;;;5.72;3.92;;;;;;;;;;5016322;28;20214;-69
2024/01/07 11:21:03;;;;;;;7.57;4.07;;;;;;;;;;5015827;28;20311;-69
2024/01/07 11:23:32;;;;;;;4.38;3.80;;;;;;;;;;5016042;28;20728;-69
2024/01/07 11:26:00;;;;;;;4.78;3.80;;;;;;;;;;5015984;28;20210;-69
2024/01/07 11:28:46;;;;;;;5.03;3.75;;;;;;;;;;5016513;28;20206;-70
2024/01/07 11:31:14;;;;;;;4.38;3.65;;;;;;;;;;5016123;28;20206;-69
2024/01/07 11:33:45;;;;;;;5.25;3.72;;;;;;;;;;5016509;28;20687;-70
2024/01/07 11:36:13;;;;;;;3.67;3.30;;;;;;;;;;5017728;28;20252;-70
2024/01/07 11:38:43;;;;;;;10.82;7.80;;;;;;;;;;5020374;28;20237;-69
2024/01/07 11:41:11;;;;;;;54.60;35.35;;;;;;;;;;5020114;28;20603;-70
2024/01/07 11:43:39;;;;;;;83.13;52.85;;;;;;;;;;5019921;28;20214;-69
2024/01/07 11:46:06;;;;;;;72.78;47.65;;;;;;;;;;5020025;28;20260;-70
2024/01/07 11:48:34;;;;;;;65.82;43.55;;;;;;;;;;5020144;28;20238;-69
2024/01/07 11:51:03;;;;;;;64.68;42.40;;;;;;;;;;5020141;28;20209;-69
2024/01/07 11:53:30;;;;;;;59.28;40.22;;;;;;;;;;5019693;28;20257;-70
2024/01/07 11:55:58;;;;;;;54.25;36.95;;;;;;;;;;5019019;28;20206;-69
2024/01/07 11:58:26;;;;;;;52.20;35.78;;;;;;;;;;5019791;28;20206;-69
2024/01/07 12:00:53;;;;;;;49.97;35.45;;;;;;;;;;5019803;28;20545;-69
2024/01/07 12:03:21;;;;;;;48.33;32.47;;;;;;;;;;5019937;28;20700;-69
2024/01/07 12:05:48;;;;;;;50.97;32.95;;;;;;;;;;5019971;28;20207;-70
2024/01/07 12:08:17;;;;;;;45.28;31.30;;;;;;;;;;5018617;28;20372;-70
2024/01/07 12:10:45;;;;;;;116.18;74.13;;;;;;;;;;5019039;28;20245;-69
2024/01/07 12:13:12;;;;;;;98.85;66.25;;;;;;;;;;5019252;28;20264;-70
2024/01/07 12:15:40;;;;;;;94.43;62.75;;;;;;;;;;5019187;28;20222;-69
2024/01/07 12:18:08;;;;;;;91.90;57.72;;;;;;;;;;5019555;28;20210;-69
2024/01/07 12:20:34;;;;;;;89.43;57.55;;;;;;;;;;5018694;28;20257;-69
2024/01/07 12:23:07;;;;;;;80.65;53.10;;;;;;;;;;5018195;28;20199;-70
2024/01/07 12:25:36;;;;;;;78.60;52.25;;;;;;;;;;5018662;28;20394;-70
2024/01/07 12:28:04;;;;;;;76.13;51.30;;;;;;;;;;5019749;28;20211;-70
2024/01/07 12:30:31;;;;;;;74.28;49.72;;;;;;;;;;5019358;28;20214;-69
2024/01/07 12:32:59;;;;;;;70.60;46.55;;;;;;;;;;5018815;28;20246;-69
2024/01/07 12:35:27;;;;;;;65.53;46.80;;;;;;;;;;5018550;28;20210;-69
2024/01/07 12:37:56;;;;;;;68.95;44.67;;;;;;;;;;5018938;28;20234;-69
2024/01/07 12:40:24;;;;;;;62.10;43.38;;;;;;;;;;5018945;28;20344;-69
2024/01/07 12:42:53;;;;;;;58.92;41.80;;;;;;;;;;5019068;28;20206;-69
2024/01/07 12:45:21;;;;;;;58.70;40.97;;;;;;;;;;5018907;28;20483;-69
2024/01/07 12:47:48;;;;;;;56.75;38.80;;;;;;;;;;5018437;28;20615;-69
2024/01/07 12:50:16;;;;;;;56.63;38.60;;;;;;;;;;5018716;28;20199;-69
2024/01/07 12:52:44;;;;;;;55.55;38.00;;;;;;;;;;5018576;28;20226;-69
2024/01/07 12:55:11;;;;;;;54.67;38.05;;;;;;;;;;5018419;28;20202;-70
2024/01/07 12:57:38;;;;;;;50.95;36.33;;;;;;;;;;5018343;28;20213;-70
2024/01/07 13:00:08;;;;;;;50.17;35.67;;;;;;;;;;5017339;28;20754;-70
2024/01/07 13:02:36;;;;;;;49.97;34.55;;;;;;;;;;5017452;28;20248;-70
2024/01/07 13:05:04;;;;;;;44.05;32.58;;;;;;;;;;5017770;28;20697;-69
2024/01/07 13:07:31;;;;;;;44.63;31.55;;;;;;;;;;5017927;28;20663;-69
2024/01/07 13:09:59;;;;;;;42.72;31.45;;;;;;;;;;5018411;28;20501;-69
2024/01/07 13:12:26;;;;;;;41.65;29.30;;;;;;;;;;5018675;28;20454;-70
2024/01/07 13:14:54;;;;;;;41.25;29.00;;;;;;;;;;5017268;28;20214;-70
2024/01/07 13:17:22;;;;;;;40.83;27.85;;;;;;;;;;5018186;28;20213;-70
2024/01/07 13:19:50;;;;;;;36.75;27.08;;;;;;;;;;5018365;28;20230;-70
2024/01/07 13:22:17;;;;;;;37.45;26.10;;;;;;;;;;5017973;28;20246;-70
2024/01/07 13:24:44;;;;;;;33.88;24.67;;;;;;;;;;5017442;28;20207;-70
2024/01/07 13:27:12;;;;;;;35.00;24.73;;;;;;;;;;5018468;28;20213;-69
2024/01/07 13:29:40;;;;;;;33.85;23.88;;;;;;;;;;5018171;28;20493;-69
2024/01/07 13:32:07;;;;;;;30.17;22.52;;;;;;;;;;5018225;28;20468;-69
2024/01/07 13:34:36;;;;;;;31.80;22.25;;;;;;;;;;5017786;28;20210;-69
2024/01/07 13:37:04;;;;;;;28.23;21.00;;;;;;;;;;5017873;28;20480;-69
2024/01/07 13:39:31;;;;;;;24.92;19.83;;;;;;;;;;5017598;28;20206;-70
2024/01/07 13:41:58;;;;;;;28.17;20.98;;;;;;;;;;5017635;28;20218;-69
2024/01/07 13:44:26;;;;;;;26.33;19.95;;;;;;;;;;5017919;28;20206;-69
2024/01/07 13:46:53;;;;;;;25.40;18.75;;;;;;;;;;5017643;28;20206;-69
2024/01/07 13:49:20;;;;;;;25.08;18.42;;;;;;;;;;5018044;28;20405;-69
2024/01/07 13:51:50;;;;;;;23.23;17.27;;;;;;;;;;5017139;28;20206;-69
2024/01/07 13:54:17;;;;;;;29.58;17.35;;;;;;;;;;5017699;28;20214;-69
2024/01/07 13:56:44;;;;;;;26.02;17.60;;;;;;;;;;5017299;28;20491;-70
2024/01/07 13:59:11;;;;;;;21.38;15.48;;;;;;;;;;5016638;28;20210;-69
2024/01/07 14:01:39;;;;;;;27.02;17.10;;;;;;;;;;5016968;28;20226;-70
2024/01/07 14:04:07;;;;;;;22.83;16.05;;;;;;;;;;5016911;28;20678;-70
2024/01/07 14:06:34;;;;;;;23.48;15.23;;;;;;;;;;5017052;28;20217;-70
2024/01/07 14:09:03;;;;;;;20.05;14.93;;;;;;;;;;5016597;28;20569;-69
2024/01/07 14:11:32;;;;;;;20.00;14.48;;;;;;;;;;5016824;28;20284;-69
2024/01/07 14:13:59;;;;;;;19.63;14.73;;;;;;;;;;5017022;28;20539;-69
2024/01/07 14:16:28;;;;;;;17.23;13.57;;;;;;;;;;5016844;28;20401;-69
2024/01/07 14:18:56;;;;;;;18.42;14.07;;;;;;;;;;5016730;28;20518;-69
2024/01/07 14:21:24;;;;;;;18.30;13.23;;;;;;;;;;5016400;28;20242;-69
2024/01/07 14:23:52;;;;;;;16.58;12.77;;;;;;;;;;5015555;28;20213;-69
2024/01/07 14:26:23;;;;;;;17.17;12.63;;;;;;;;;;5015595;28;20206;-69
2024/01/07 14:28:51;;;;;;;15.45;11.88;;;;;;;;;;5016219;28;20206;-69
2024/01/07 14:31:18;;;;;;;15.07;11.50;;;;;;;;;;5015177;28;20198;-70
2024/01/07 14:33:46;;;;;;;14.75;10.65;;;;;;;;;;5015561;28;20213;-69
2024/01/07 14:36:17;;;;;;;15.00;11.50;;;;;;;;;;5014814;28;20217;-70
2024/01/07 14:38:45;;;;;;;14.25;11.23;;;;;;;;;;5016467;28;20271;-69
2024/01/07 14:41:13;;;;;;;13.82;10.40;;;;;;;;;;5015566;28;20233;-70